sensor_id;sensor_type;location;lat;lon;timestamp;pressure;altitude;pressure_sealevel;temperature;humidity
5877;BME280;2964;42.144;24.730;2022-07-22T00:01:58;147597.56;;;24.33;66.16
5877;BME280;2964;42.144;24.730;2022-07-22T00:04:25;147600.13;;;24.34;65.50
5877;BME280;2964;42.144;24.730;2022-07-22T00:06:51;147636.91;;;24.48;65.44
5877;BME280;2964;42.144;24.730;2022-07-22T00:09:19;147666.13;;;24.60;63.77
5877;BME280;2964;42.144;24.730;2022-07-22T00:11:46;147634.41;;;24.47;64.37
5877;BME280;2964;42.144;24.730;2022-07-22T00:14:13;147619.16;;;24.41;65.18
5877;BME280;2964;42.144;24.730;2022-07-22T00:16:40;147577.28;;;24.24;65.85
5877;BME280;2964;42.144;24.730;2022-07-22T00:19:07;147568.41;;;24.21;65.92
5877;BME280;2964;42.144;24.730;2022-07-22T00:21:34;147569.66;;;24.21;65.69
5877;BME280;2964;42.144;24.730;2022-07-22T00:24:01;147616.63;;;24.40;65.37
5877;BME280;2964;42.144;24.730;2022-07-22T00:26:29;147596.31;;;24.32;65.66
5877;BME280;2964;42.144;24.730;2022-07-22T00:28:55;147535.44;;;24.07;66.25
5877;BME280;2964;42.144;24.730;2022-07-22T00:31:22;147510.03;;;23.97;66.44
5877;BME280;2964;42.144;24.730;2022-07-22T00:33:49;147530.38;;;24.05;66.63
5877;BME280;2964;42.144;24.730;2022-07-22T00:36:16;147539.25;;;24.09;67.15
5877;BME280;2964;42.144;24.730;2022-07-22T00:38:42;147522.72;;;24.02;67.42
5877;BME280;2964;42.144;24.730;2022-07-22T00:41:09;147459.25;;;23.77;68.19
5877;BME280;2964;42.144;24.730;2022-07-22T00:43:51;147426.28;;;23.63;68.90
5877;BME280;2964;42.144;24.730;2022-07-22T00:46:18;147433.91;;;23.66;69.16
5877;BME280;2964;42.144;24.730;2022-07-22T00:48:45;147460.50;;;23.77;68.65
5877;BME280;2964;42.144;24.730;2022-07-22T00:51:13;147449.13;;;23.73;68.85
5877;BME280;2964;42.144;24.730;2022-07-22T00:53:40;147421.22;;;23.61;67.83
5877;BME280;2964;42.144;24.730;2022-07-22T00:56:07;147440.25;;;23.69;67.79
5877;BME280;2964;42.144;24.730;2022-07-22T00:58:34;147400.91;;;23.53;67.66
5877;BME280;2964;42.144;24.730;2022-07-22T01:01:03;147408.53;;;23.56;67.60
5877;BME280;2964;42.144;24.730;2022-07-22T01:03:30;147411.09;;;23.57;67.75
5877;BME280;2964;42.144;24.730;2022-07-22T01:05:57;147400.91;;;23.53;68.11
5877;BME280;2964;42.144;24.730;2022-07-22T01:08:24;147383.16;;;23.46;68.51
5877;BME280;2964;42.144;24.730;2022-07-22T01:10:51;147378.09;;;23.44;68.40
5877;BME280;2964;42.144;24.730;2022-07-22T01:13:18;147380.63;;;23.45;67.91
5877;BME280;2964;42.144;24.730;2022-07-22T01:15:45;147345.13;;;23.30;68.89
5877;BME280;2964;42.144;24.730;2022-07-22T01:18:13;147350.19;;;23.32;69.26
5877;BME280;2964;42.144;24.730;2022-07-22T01:20:41;147375.56;;;23.43;68.72
5877;BME280;2964;42.144;24.730;2022-07-22T01:23:08;147337.50;;;23.27;69.00
5877;BME280;2964;42.144;24.730;2022-07-22T01:25:34;147333.75;;;23.26;69.33
5877;BME280;2964;42.144;24.730;2022-07-22T01:28:01;147317.25;;;23.19;70.27
5877;BME280;2964;42.144;24.730;2022-07-22T01:30:28;147319.78;;;23.20;70.04
5877;BME280;2964;42.144;24.730;2022-07-22T01:32:55;147309.63;;;23.16;70.20
5877;BME280;2964;42.144;24.730;2022-07-22T01:35:21;147312.16;;;23.17;69.83
5877;BME280;2964;42.144;24.730;2022-07-22T01:37:50;147312.16;;;23.17;70.27
5877;BME280;2964;42.144;24.730;2022-07-22T01:40:16;147314.69;;;23.18;70.52
5877;BME280;2964;42.144;24.730;2022-07-22T01:42:43;147305.81;;;23.15;69.99
5877;BME280;2964;42.144;24.730;2022-07-22T01:45:10;147302.03;;;23.13;70.81
5877;BME280;2964;42.144;24.730;2022-07-22T01:47:37;147299.50;;;23.12;70.71
5877;BME280;2964;42.144;24.730;2022-07-22T01:50:04;147294.41;;;23.10;70.87
5877;BME280;2964;42.144;24.730;2022-07-22T01:52:31;147258.88;;;22.96;70.99
5877;BME280;2964;42.144;24.730;2022-07-22T01:54:59;147262.69;;;22.97;71.29
5877;BME280;2964;42.144;24.730;2022-07-22T01:57:27;147246.19;;;22.90;72.09
5877;BME280;2964;42.144;24.730;2022-07-22T01:59:53;147279.22;;;23.04;71.36
5877;BME280;2964;42.144;24.730;2022-07-22T02:02:20;147220.84;;;22.80;71.13
5877;BME280;2964;42.144;24.730;2022-07-22T02:04:47;147252.53;;;22.93;71.22
5877;BME280;2964;42.144;24.730;2022-07-22T02:07:14;147247.47;;;22.91;72.44
5877;BME280;2964;42.144;24.730;2022-07-22T02:09:40;147253.81;;;22.93;72.81
5877;BME280;2964;42.144;24.730;2022-07-22T02:12:09;147241.13;;;22.88;72.54
5877;BME280;2964;42.144;24.730;2022-07-22T02:14:35;147241.13;;;22.88;72.39
5877;BME280;2964;42.144;24.730;2022-07-22T02:17:02;147233.53;;;22.85;72.03
5877;BME280;2964;42.144;24.730;2022-07-22T02:19:29;147214.50;;;22.78;72.35
5877;BME280;2964;42.144;24.730;2022-07-22T02:21:55;147210.72;;;22.76;72.87
5877;BME280;2964;42.144;24.730;2022-07-22T02:24:22;147206.91;;;22.74;73.24
5877;BME280;2964;42.144;24.730;2022-07-22T02:26:49;147153.66;;;22.53;72.57
5877;BME280;2964;42.144;24.730;2022-07-22T02:29:17;147172.66;;;22.61;72.87
5877;BME280;2964;42.144;24.730;2022-07-22T02:31:44;147149.88;;;22.51;72.52
5877;BME280;2964;42.144;24.730;2022-07-22T02:34:10;147149.88;;;22.51;72.19
5877;BME280;2964;42.144;24.730;2022-07-22T02:36:37;147057.31;;;22.14;72.65
5877;BME280;2964;42.144;24.730;2022-07-22T02:39:04;147152.41;;;22.52;72.30
5877;BME280;2964;42.144;24.730;2022-07-22T02:41:31;147161.28;;;22.56;72.03
5877;BME280;2964;42.144;24.730;2022-07-22T02:43:58;147144.78;;;22.49;73.55
5877;BME280;2964;42.144;24.730;2022-07-22T02:46:26;147146.06;;;22.50;73.28
5877;BME280;2964;42.144;24.730;2022-07-22T02:48:54;147109.31;;;22.35;73.41
5877;BME280;2964;42.144;24.730;2022-07-22T02:51:21;147066.19;;;22.17;73.64
5877;BME280;2964;42.144;24.730;2022-07-22T02:53:48;147081.38;;;22.24;73.96
5877;BME280;2964;42.144;24.730;2022-07-22T02:56:15;147124.53;;;22.41;73.41
5877;BME280;2964;42.144;24.730;2022-07-22T02:58:42;147160.00;;;22.55;72.47
5877;BME280;2964;42.144;24.730;2022-07-22T03:01:09;147020.59;;;21.99;75.52
5877;BME280;2964;42.144;24.730;2022-07-22T03:03:37;147035.78;;;22.05;75.52
5877;BME280;2964;42.144;24.730;2022-07-22T03:06:04;147023.09;;;22.00;75.72
5877;BME280;2964;42.144;24.730;2022-07-22T03:08:31;146881.19;;;21.43;79.62
5877;BME280;2964;42.144;24.730;2022-07-22T03:10:57;146921.78;;;21.59;79.02
5877;BME280;2964;42.144;24.730;2022-07-22T03:13:24;146964.88;;;21.76;79.19
5877;BME280;2964;42.144;24.730;2022-07-22T03:15:51;147053.53;;;22.12;77.06
5877;BME280;2964;42.144;24.730;2022-07-22T03:18:17;147092.88;;;22.28;76.45
5877;BME280;2964;42.144;24.730;2022-07-22T03:20:46;146919.28;;;21.58;78.48
5877;BME280;2964;42.144;24.730;2022-07-22T03:23:13;146871.09;;;21.38;79.99
5877;BME280;2964;42.144;24.730;2022-07-22T03:25:39;146945.81;;;21.69;79.28
5877;BME280;2964;42.144;24.730;2022-07-22T03:28:06;146961.06;;;21.75;78.83
5877;BME280;2964;42.144;24.730;2022-07-22T03:30:33;146890.13;;;21.46;79.81
5877;BME280;2964;42.144;24.730;2022-07-22T03:33:00;146897.72;;;21.49;80.14
5877;BME280;2964;42.144;24.730;2022-07-22T03:35:27;146858.41;;;21.33;80.51
5877;BME280;2964;42.144;24.730;2022-07-22T03:37:55;146968.63;;;21.78;79.15
5877;BME280;2964;42.144;24.730;2022-07-22T03:40:21;147014.22;;;21.96;78.03
5877;BME280;2964;42.144;24.730;2022-07-22T03:42:48;146916.72;;;21.57;79.37
5877;BME280;2964;42.144;24.730;2022-07-22T03:45:15;146885.00;;;21.44;80.81
5877;BME280;2964;42.144;24.730;2022-07-22T03:47:42;146943.31;;;21.68;79.82
5877;BME280;2964;42.144;24.730;2022-07-22T03:50:08;146921.78;;;21.59;80.35
5877;BME280;2964;42.144;24.730;2022-07-22T03:52:35;146968.63;;;21.78;80.08
5877;BME280;2964;42.144;24.730;2022-07-22T03:55:05;146914.16;;;21.56;80.34
5877;BME280;2964;42.144;24.730;2022-07-22T03:57:32;146915.47;;;21.56;80.62
5877;BME280;2964;42.144;24.730;2022-07-22T03:59:59;146963.56;;;21.76;80.41
5877;BME280;2964;42.144;24.730;2022-07-22T04:02:25;146966.13;;;21.77;80.03
5877;BME280;2964;42.144;24.730;2022-07-22T04:04:52;146967.38;;;21.77;80.29
5877;BME280;2964;42.144;24.730;2022-07-22T04:07:19;147058.59;;;22.14;78.21
5877;BME280;2964;42.144;24.730;2022-07-22T04:09:45;146996.53;;;21.89;79.21
5877;BME280;2964;42.144;24.730;2022-07-22T04:12:13;147038.34;;;22.06;79.36
5877;BME280;2964;42.144;24.730;2022-07-22T04:14:40;147083.94;;;22.25;78.77
5877;BME280;2964;42.144;24.730;2022-07-22T04:17:07;147128.31;;;22.43;78.36
5877;BME280;2964;42.144;24.730;2022-07-22T04:19:33;147184.09;;;22.65;77.34
5877;BME280;2964;42.144;24.730;2022-07-22T04:22:00;147204.34;;;22.73;76.50
5877;BME280;2964;42.144;24.730;2022-07-22T04:24:27;147230.97;;;22.84;76.20
5877;BME280;2964;42.144;24.730;2022-07-22T04:26:54;147284.28;;;23.06;75.75
5877;BME280;2964;42.144;24.730;2022-07-22T04:29:22;147304.56;;;23.14;75.21
5877;BME280;2964;42.144;24.730;2022-07-22T04:31:49;147378.09;;;23.44;74.45
5877;BME280;2964;42.144;24.730;2022-07-22T04:34:16;147617.91;;;24.41;71.18
5877;BME280;2964;42.144;24.730;2022-07-22T04:36:42;147766.41;;;25.01;67.50
5877;BME280;2964;42.144;24.730;2022-07-22T04:39:09;148004.00;;;25.97;64.38
5877;BME280;2964;42.144;24.730;2022-07-22T04:41:36;148185.69;;;26.70;61.43
5877;BME280;2964;42.144;24.730;2022-07-22T04:44:03;148242.91;;;26.93;60.77
5877;BME280;2964;42.144;24.730;2022-07-22T04:46:31;148348.44;;;27.36;59.06
5877;BME280;2964;42.144;24.730;2022-07-22T04:48:58;148572.31;;;28.26;55.00
5877;BME280;2964;42.144;24.730;2022-07-22T04:51:24;148707.19;;;28.81;53.46
5877;BME280;2964;42.144;24.730;2022-07-22T04:53:51;148607.94;;;28.41;53.43
5877;BME280;2964;42.144;24.730;2022-07-22T04:56:18;148493.47;;;27.95;55.88
5877;BME280;2964;42.144;24.730;2022-07-22T04:58:45;148829.41;;;29.30;50.88
5877;BME280;2964;42.144;24.730;2022-07-22T05:01:11;148844.69;;;29.36;52.29
5877;BME280;2964;42.144;24.730;2022-07-22T05:03:40;148765.72;;;29.04;52.54
5877;BME280;2964;42.144;24.730;2022-07-22T05:06:07;149256.19;;;31.02;48.59
5877;BME280;2964;42.144;24.730;2022-07-22T05:08:33;149038.28;;;30.14;49.26
5877;BME280;2964;42.144;24.730;2022-07-22T05:11:01;149254.91;;;31.02;47.74
5877;BME280;2964;42.144;24.730;2022-07-22T05:13:27;148880.34;;;29.51;51.23
5877;BME280;2964;42.144;24.730;2022-07-22T05:15:54;148956.78;;;29.81;50.88
5877;BME280;2964;42.144;24.730;2022-07-22T05:18:21;149308.44;;;31.23;48.75
5877;BME280;2964;42.144;24.730;2022-07-22T05:20:49;149714.00;;;32.86;44.25
5877;BME280;2964;42.144;24.730;2022-07-22T05:23:15;149541.81;;;32.17;44.79
5877;BME280;2964;42.144;24.730;2022-07-22T05:25:42;149600.47;;;32.41;44.58
5877;BME280;2964;42.144;24.730;2022-07-22T05:28:09;149918.22;;;33.69;42.32
5877;BME280;2964;42.144;24.730;2022-07-22T05:30:36;149965.44;;;33.88;40.99
5877;BME280;2964;42.144;24.730;2022-07-22T05:33:02;149980.72;;;33.94;41.18
5877;BME280;2964;42.144;24.730;2022-07-22T05:35:29;150389.50;;;35.58;37.51
5877;BME280;2964;42.144;24.730;2022-07-22T05:37:57;150541.66;;;36.19;35.65
5877;BME280;2964;42.144;24.730;2022-07-22T05:40:24;150015.22;;;34.08;37.50
5877;BME280;2964;42.144;24.730;2022-07-22T05:42:51;149785.47;;;33.15;40.80
5877;BME280;2964;42.144;24.730;2022-07-22T05:45:18;149828.84;;;33.33;40.85
5877;BME280;2964;42.144;24.730;2022-07-22T05:47:44;149957.75;;;33.84;40.24
5877;BME280;2964;42.144;24.730;2022-07-22T05:50:11;150346.06;;;35.41;37.65
5877;BME280;2964;42.144;24.730;2022-07-22T05:52:38;150673.28;;;36.72;34.93
5877;BME280;2964;42.144;24.730;2022-07-22T05:55:07;150093.13;;;34.39;37.98
5877;BME280;2964;42.144;24.730;2022-07-22T05:57:34;149997.34;;;34.00;38.28
5877;BME280;2964;42.144;24.730;2022-07-22T06:00:01;149906.69;;;33.64;40.16
5877;BME280;2964;42.144;24.730;2022-07-22T06:02:28;150508.34;;;36.06;37.22
5877;BME280;2964;42.144;24.730;2022-07-22T06:04:55;150583.81;;;36.36;35.77
5877;BME280;2964;42.144;24.730;2022-07-22T06:07:21;150156.97;;;34.65;35.51
5877;BME280;2964;42.144;24.730;2022-07-22T06:09:48;150319.22;;;35.30;36.53
5877;BME280;2964;42.144;24.730;2022-07-22T06:12:16;150346.06;;;35.41;35.14
5877;BME280;2964;42.144;24.730;2022-07-22T06:14:43;150375.41;;;35.52;35.10
5877;BME280;2964;42.144;24.730;2022-07-22T06:17:11;150648.97;;;36.62;32.59
5877;BME280;2964;42.144;24.730;2022-07-22T06:19:38;150774.28;;;37.13;32.54
5877;BME280;2964;42.144;24.730;2022-07-22T06:22:05;151172.25;;;38.72;29.76
5877;BME280;2964;42.144;24.730;2022-07-22T06:24:31;151204.25;;;38.85;30.08
5877;BME280;2964;42.144;24.730;2022-07-22T06:26:58;151163.31;;;38.69;30.86
5877;BME280;2964;42.144;24.730;2022-07-22T06:29:26;151057.06;;;38.26;30.52
5877;BME280;2964;42.144;24.730;2022-07-22T06:31:53;150260.41;;;35.06;36.09
5877;BME280;2964;42.144;24.730;2022-07-22T06:34:20;150704.00;;;36.84;33.01
5877;BME280;2964;42.144;24.730;2022-07-22T06:36:47;150897.16;;;37.62;31.66
5877;BME280;2964;42.144;24.730;2022-07-22T06:39:14;150107.19;;;34.45;35.19
5877;BME280;2964;42.144;24.730;2022-07-22T06:41:40;149851.81;;;33.42;37.58
5877;BME280;2964;42.144;24.730;2022-07-22T06:44:07;150049.75;;;34.21;37.55
5877;BME280;2964;42.144;24.730;2022-07-22T06:46:35;150803.78;;;37.24;32.44
5877;BME280;2964;42.144;24.730;2022-07-22T06:49:02;150631.06;;;36.55;32.26
5877;BME280;2964;42.144;24.730;2022-07-22T06:51:29;150842.09;;;37.40;31.70
5877;BME280;2964;42.144;24.730;2022-07-22T06:53:56;150779.44;;;37.15;31.98
5877;BME280;2964;42.144;24.730;2022-07-22T06:56:22;150753.84;;;37.04;32.24
5877;BME280;2964;42.144;24.730;2022-07-22T06:58:49;151201.69;;;38.84;30.19
5877;BME280;2964;42.144;24.730;2022-07-22T07:01:16;150634.91;;;36.57;32.20
5877;BME280;2964;42.144;24.730;2022-07-22T07:03:44;150447.03;;;35.81;33.95
5877;BME280;2964;42.144;24.730;2022-07-22T07:06:12;150884.31;;;37.57;32.97
5877;BME280;2964;42.144;24.730;2022-07-22T07:08:38;151284.91;;;39.17;28.71
5877;BME280;2964;42.144;24.730;2022-07-22T07:11:05;150702.72;;;36.84;31.08
5877;BME280;2964;42.144;24.730;2022-07-22T07:13:33;150843.38;;;37.40;32.27
5877;BME280;2964;42.144;24.730;2022-07-22T07:15:59;150892.00;;;37.60;31.13
5877;BME280;2964;42.144;24.730;2022-07-22T07:18:26;150808.88;;;37.26;32.22
5877;BME280;2964;42.144;24.730;2022-07-22T07:20:54;151022.53;;;38.12;29.61
5877;BME280;2964;42.144;24.730;2022-07-22T07:23:21;150838.25;;;37.38;31.07
5877;BME280;2964;42.144;24.730;2022-07-22T07:25:49;150375.41;;;35.52;32.26
5877;BME280;2964;42.144;24.730;2022-07-22T07:28:16;150311.59;;;35.27;34.04
5877;BME280;2964;42.144;24.730;2022-07-22T07:30:42;150260.41;;;35.06;35.45
5877;BME280;2964;42.144;24.730;2022-07-22T07:33:09;150695.03;;;36.81;31.96
5877;BME280;2964;42.144;24.730;2022-07-22T07:35:36;151186.34;;;38.78;29.28
5877;BME280;2964;42.144;24.730;2022-07-22T07:38:05;151480.88;;;39.96;27.84
5877;BME280;2964;42.144;24.730;2022-07-22T07:40:31;151009.72;;;38.07;30.03
5877;BME280;2964;42.144;24.730;2022-07-22T07:42:58;151217.06;;;38.90;29.00
5877;BME280;2964;42.144;24.730;2022-07-22T07:45:25;151060.94;;;38.28;29.37
5877;BME280;2964;42.144;24.730;2022-07-22T07:47:52;150926.53;;;37.74;29.90
5877;BME280;2964;42.144;24.730;2022-07-22T07:50:19;151053.22;;;38.24;31.32
5877;BME280;2964;42.144;24.730;2022-07-22T07:52:45;151487.25;;;39.99;28.43
5877;BME280;2964;42.144;24.730;2022-07-22T07:55:15;151565.34;;;40.30;27.93
5877;BME280;2964;42.144;24.730;2022-07-22T07:57:42;151765.28;;;41.10;25.84
5877;BME280;2964;42.144;24.730;2022-07-22T08:00:12;151460.31;;;39.88;27.17
5877;BME280;2964;42.144;24.730;2022-07-22T08:02:40;151670.41;;;40.72;25.92
5877;BME280;2964;42.144;24.730;2022-07-22T08:05:07;151796.03;;;41.22;26.00
5877;BME280;2964;42.144;24.730;2022-07-22T08:07:35;151648.63;;;40.63;26.57
5877;BME280;2964;42.144;24.730;2022-07-22T08:10:03;151535.91;;;40.18;26.80
5877;BME280;2964;42.144;24.730;2022-07-22T08:12:31;151119.72;;;38.51;28.04
5877;BME280;2964;42.144;24.730;2022-07-22T08:14:58;150670.75;;;36.71;29.98
5877;BME280;2964;42.144;24.730;2022-07-22T08:17:25;150728.25;;;36.94;30.16
5877;BME280;2964;42.144;24.730;2022-07-22T08:19:51;150748.75;;;37.02;30.92
5877;BME280;2964;42.144;24.730;2022-07-22T08:22:18;150815.25;;;37.29;31.16
5877;BME280;2964;42.144;24.730;2022-07-22T08:24:45;151041.69;;;38.20;29.88
5877;BME280;2964;42.144;24.730;2022-07-22T08:27:11;151083.94;;;38.37;30.15
5877;BME280;2964;42.144;24.730;2022-07-22T08:29:39;150935.50;;;37.77;30.69
5877;BME280;2964;42.144;24.730;2022-07-22T08:32:09;150531.34;;;36.15;31.40
5877;BME280;2964;42.144;24.730;2022-07-22T08:34:35;150805.03;;;37.25;31.59
5877;BME280;2964;42.144;24.730;2022-07-22T08:37:02;151081.38;;;38.36;30.16
5877;BME280;2964;42.144;24.730;2022-07-22T08:39:29;151043.00;;;38.20;29.10
5877;BME280;2964;42.144;24.730;2022-07-22T08:41:56;151214.47;;;38.89;29.84
5877;BME280;2964;42.144;24.730;2022-07-22T08:44:23;151421.91;;;39.72;27.93
5877;BME280;2964;42.144;24.730;2022-07-22T08:46:51;151541.03;;;40.20;26.72
5877;BME280;2964;42.144;24.730;2022-07-22T08:49:18;151359.22;;;39.47;26.81
5877;BME280;2964;42.144;24.730;2022-07-22T08:51:45;151124.88;;;38.53;28.57
5877;BME280;2964;42.144;24.730;2022-07-22T08:54:12;151092.91;;;38.40;27.71
5877;BME280;2964;42.144;24.730;2022-07-22T08:56:39;151154.34;;;38.65;28.32
5877;BME280;2964;42.144;24.730;2022-07-22T08:59:08;150755.13;;;37.05;29.18
5877;BME280;2964;42.144;24.730;2022-07-22T09:01:34;150792.25;;;37.20;28.76
5877;BME280;2964;42.144;24.730;2022-07-22T09:04:03;151128.75;;;38.55;29.23
5877;BME280;2964;42.144;24.730;2022-07-22T09:06:30;151147.97;;;38.63;27.82
5877;BME280;2964;42.144;24.730;2022-07-22T09:09:00;150916.31;;;37.70;29.19
5877;BME280;2964;42.144;24.730;2022-07-22T09:11:28;150646.41;;;36.61;30.53
5877;BME280;2964;42.144;24.730;2022-07-22T09:13:56;150987.97;;;37.98;29.11
5877;BME280;2964;42.144;24.730;2022-07-22T09:16:40;151039.16;;;38.19;27.44
5877;BME280;2964;42.144;24.730;2022-07-22T09:19:08;151439.84;;;39.80;26.06
5877;BME280;2964;42.144;24.730;2022-07-22T09:21:36;151616.63;;;40.50;25.68
5877;BME280;2964;42.144;24.730;2022-07-22T09:24:05;151810.13;;;41.28;24.06
5877;BME280;2964;42.144;24.730;2022-07-22T09:26:33;151547.41;;;40.23;23.87
5877;BME280;2964;42.144;24.730;2022-07-22T09:29:00;151237.53;;;38.98;25.37
5877;BME280;2964;42.144;24.730;2022-07-22T09:31:29;151729.41;;;40.96;24.76
5877;BME280;2964;42.144;24.730;2022-07-22T09:33:57;151756.31;;;41.06;23.55
5877;BME280;2964;42.144;24.730;2022-07-22T09:36:25;151470.63;;;39.92;25.12
5877;BME280;2964;42.144;24.730;2022-07-22T09:38:52;151470.63;;;39.92;25.45
5877;BME280;2964;42.144;24.730;2022-07-22T09:41:19;151783.22;;;41.17;24.09
5877;BME280;2964;42.144;24.730;2022-07-22T09:43:46;151816.56;;;41.31;24.84
5877;BME280;2964;42.144;24.730;2022-07-22T09:46:13;152033.22;;;42.17;23.88
5877;BME280;2964;42.144;24.730;2022-07-22T09:48:40;152080.59;;;42.36;22.89
5877;BME280;2964;42.144;24.730;2022-07-22T09:51:07;152176.81;;;42.75;23.39
5877;BME280;2964;42.144;24.730;2022-07-22T09:53:35;152229.41;;;42.96;21.77
5877;BME280;2964;42.144;24.730;2022-07-22T09:56:04;151644.84;;;40.62;24.26
5877;BME280;2964;42.144;24.730;2022-07-22T09:58:31;151652.47;;;40.65;24.71
5877;BME280;2964;42.144;24.730;2022-07-22T10:00:59;151488.56;;;39.99;24.05
5877;BME280;2964;42.144;24.730;2022-07-22T10:03:29;151526.94;;;40.14;25.92
5877;BME280;2964;42.144;24.730;2022-07-22T10:05:57;151396.34;;;39.62;25.85
5877;BME280;2964;42.144;24.730;2022-07-22T10:08:25;151575.69;;;40.34;24.92
5877;BME280;2964;42.144;24.730;2022-07-22T10:10:58;151391.19;;;39.60;25.39
5877;BME280;2964;42.144;24.730;2022-07-22T10:13:26;151265.72;;;39.10;25.07
5877;BME280;2964;42.144;24.730;2022-07-22T10:15:53;151183.75;;;38.77;26.81
5877;BME280;2964;42.144;24.730;2022-07-22T10:18:21;151173.53;;;38.73;26.58
5877;BME280;2964;42.144;24.730;2022-07-22T10:21:00;150994.34;;;38.01;27.45
5877;BME280;2964;42.144;24.730;2022-07-22T10:23:27;150840.84;;;37.39;28.53
5877;BME280;2964;42.144;24.730;2022-07-22T10:25:57;150770.44;;;37.11;29.67
5877;BME280;2964;42.144;24.730;2022-07-22T10:28:26;150762.81;;;37.08;30.01
5877;BME280;2964;42.144;24.730;2022-07-22T10:30:54;150470.03;;;35.90;30.80
5877;BME280;2964;42.144;24.730;2022-07-22T10:33:34;150551.84;;;36.23;31.56
5877;BME280;2964;42.144;24.730;2022-07-22T10:36:03;150579.97;;;36.35;31.65
5877;BME280;2964;42.144;24.730;2022-07-22T10:38:31;150554.38;;;36.24;31.55
5877;BME280;2964;42.144;24.730;2022-07-22T10:41:00;150459.81;;;35.86;30.80
5877;BME280;2964;42.144;24.730;2022-07-22T10:43:28;150360.09;;;35.46;32.20
5877;BME280;2964;42.144;24.730;2022-07-22T10:45:56;150280.88;;;35.14;32.93
5877;BME280;2964;42.144;24.730;2022-07-22T10:48:25;150279.63;;;35.14;32.48
5877;BME280;2964;42.144;24.730;2022-07-22T10:51:11;150208.09;;;34.85;32.11
5877;BME280;2964;42.144;24.730;2022-07-22T10:53:41;150232.34;;;34.95;33.05
5877;BME280;2964;42.144;24.730;2022-07-22T10:56:18;150153.13;;;34.63;32.12
5877;BME280;2964;42.144;24.730;2022-07-22T10:58:48;150163.34;;;34.67;33.54
5877;BME280;2964;42.144;24.730;2022-07-22T11:01:17;150155.72;;;34.64;33.21
5877;BME280;2964;42.144;24.730;2022-07-22T11:03:46;149950.13;;;33.81;31.76
5877;BME280;2964;42.144;24.730;2022-07-22T11:06:15;149985.88;;;33.96;31.77
5877;BME280;2964;42.144;24.730;2022-07-22T11:08:43;150021.59;;;34.10;33.34
5877;BME280;2964;42.144;24.730;2022-07-22T11:11:11;150005.03;;;34.03;32.40
5877;BME280;2964;42.144;24.730;2022-07-22T11:13:41;150012.66;;;34.07;32.14
5877;BME280;2964;42.144;24.730;2022-07-22T11:16:17;149951.41;;;33.82;33.09
5877;BME280;2964;42.144;24.730;2022-07-22T11:18:51;149976.94;;;33.92;32.38
5877;BME280;2964;42.144;24.730;2022-07-22T11:21:21;150017.78;;;34.09;31.42
5877;BME280;2964;42.144;24.730;2022-07-22T11:23:50;150002.44;;;34.02;31.31
5877;BME280;2964;42.144;24.730;2022-07-22T11:26:18;150065.06;;;34.28;30.50
5877;BME280;2964;42.144;24.730;2022-07-22T11:28:47;150063.78;;;34.27;30.78
5877;BME280;2964;42.144;24.730;2022-07-22T11:31:15;150031.81;;;34.14;29.83
5877;BME280;2964;42.144;24.730;2022-07-22T11:33:43;150051.03;;;34.22;29.84
5877;BME280;2964;42.144;24.730;2022-07-22T11:36:10;150047.19;;;34.20;29.62
5877;BME280;2964;42.144;24.730;2022-07-22T11:38:46;149996.09;;;34.00;30.02
5877;BME280;2964;42.144;24.730;2022-07-22T11:41:15;150048.44;;;34.21;30.16
5877;BME280;2964;42.144;24.730;2022-07-22T11:43:44;150086.78;;;34.36;30.02
5877;BME280;2964;42.144;24.730;2022-07-22T11:46:13;150095.72;;;34.40;32.21
5877;BME280;2964;42.144;24.730;2022-07-22T11:48:40;150081.63;;;34.34;30.30
5877;BME280;2964;42.144;24.730;2022-07-22T11:51:07;150096.97;;;34.40;29.77
5877;BME280;2964;42.144;24.730;2022-07-22T11:53:35;150080.34;;;34.34;31.00
5877;BME280;2964;42.144;24.730;2022-07-22T11:56:03;150081.63;;;34.34;31.12
5877;BME280;2964;42.144;24.730;2022-07-22T11:58:39;149984.56;;;33.95;28.68
5877;BME280;2964;42.144;24.730;2022-07-22T12:01:06;150053.53;;;34.23;30.93
5877;BME280;2964;42.144;24.730;2022-07-22T12:03:37;150053.53;;;34.23;29.28
5877;BME280;2964;42.144;24.730;2022-07-22T12:06:07;150063.78;;;34.27;29.65
5877;BME280;2964;42.144;24.730;2022-07-22T12:08:38;150099.50;;;34.41;30.38
5877;BME280;2964;42.144;24.730;2022-07-22T12:11:06;150081.63;;;34.34;31.17
5877;BME280;2964;42.144;24.730;2022-07-22T12:13:33;150075.25;;;34.32;30.34
5877;BME280;2964;42.144;24.730;2022-07-22T12:16:00;150079.09;;;34.33;28.86
5877;BME280;2964;42.144;24.730;2022-07-22T12:18:43;150089.28;;;34.37;28.51
5877;BME280;2964;42.144;24.730;2022-07-22T12:21:10;150091.88;;;34.38;27.71
5877;BME280;2964;42.144;24.730;2022-07-22T12:23:37;150094.41;;;34.39;28.03
5877;BME280;2964;42.144;24.730;2022-07-22T12:26:04;150151.88;;;34.63;27.77
5877;BME280;2964;42.144;24.730;2022-07-22T12:28:31;150158.22;;;34.65;29.08
5877;BME280;2964;42.144;24.730;2022-07-22T12:30:58;150117.38;;;34.49;28.07
5877;BME280;2964;42.144;24.730;2022-07-22T12:33:25;150128.88;;;34.53;27.76
5877;BME280;2964;42.144;24.730;2022-07-22T12:36:01;150150.56;;;34.62;26.34
5877;BME280;2964;42.144;24.730;2022-07-22T12:38:29;150163.34;;;34.67;26.86
5877;BME280;2964;42.144;24.730;2022-07-22T12:40:56;150168.47;;;34.69;26.65
5877;BME280;2964;42.144;24.730;2022-07-22T12:43:26;150201.72;;;34.83;26.39
5877;BME280;2964;42.144;24.730;2022-07-22T12:45:53;150223.41;;;34.91;25.73
5877;BME280;2964;42.144;24.730;2022-07-22T12:48:19;150254.06;;;35.04;25.96
5877;BME280;2964;42.144;24.730;2022-07-22T12:50:55;150282.16;;;35.15;25.47
5877;BME280;2964;42.144;24.730;2022-07-22T12:53:25;150270.69;;;35.10;26.74
5877;BME280;2964;42.144;24.730;2022-07-22T12:55:56;150268.09;;;35.09;26.62
5877;BME280;2964;42.144;24.730;2022-07-22T12:58:24;150257.91;;;35.05;26.68
5877;BME280;2964;42.144;24.730;2022-07-22T13:00:53;150228.50;;;34.93;25.72
5877;BME280;2964;42.144;24.730;2022-07-22T13:03:21;150208.09;;;34.85;28.44